Time;durP1;ratioP1;P1;durP2;ratioP2;P2;SDS_P1;SDS_P2;PMS_P1;PMS_P2;Temp;Humidity;BMP_temperature;BMP_pressure;BME280_temperature;BME280_humidity;BME280_pressure;Samples;Min_cycle;Max_cycle;Signal;HPM_P1;HPM_P2
2022/07/04 00:01:14;;;;;;;4.80;2.33;;;;;;;24.03;46.96;99707.59;5093563;28;20247;-78
2022/07/04 00:03:41;;;;;;;4.87;2.10;;;;;;;23.75;47.18;99705.50;5093974;28;20225;-78
2022/07/04 00:06:08;;;;;;;5.13;2.40;;;;;;;23.60;47.90;99708.25;5093645;28;20221;-76
2022/07/04 00:08:36;;;;;;;3.57;2.40;;;;;;;23.69;47.05;99703.88;5093925;28;20192;-78
2022/07/04 00:11:02;;;;;;;6.27;2.73;;;;;;;23.78;46.83;99696.81;5093934;28;20255;-76
2022/07/04 00:13:29;;;;;;;3.00;2.33;;;;;;;23.86;46.74;99703.56;5093383;28;20689;-76
2022/07/04 00:15:56;;;;;;;4.17;1.90;;;;;;;23.94;46.40;99703.81;5094042;28;20194;-76
2022/07/04 00:18:23;;;;;;;3.27;2.10;;;;;;;23.98;46.38;99696.75;5093532;28;20251;-76
2022/07/04 00:20:49;;;;;;;5.13;2.63;;;;;;;24.07;46.09;99695.09;5093166;28;20621;-79
2022/07/04 00:23:16;;;;;;;3.93;2.40;;;;;;;24.14;45.87;99684.72;5092724;28;20212;-79
2022/07/04 00:25:44;;;;;;;2.30;2.20;;;;;;;24.15;45.46;99683.66;5093749;28;20198;-79
2022/07/04 00:28:11;;;;;;;4.60;2.13;;;;;;;24.16;45.45;99682.56;5093323;28;20199;-80
2022/07/04 00:30:38;;;;;;;2.20;2.10;;;;;;;24.24;46.33;99683.88;5093183;28;20198;-80
2022/07/04 00:33:04;;;;;;;2.80;2.53;;;;;;;24.36;46.24;99681.63;5093197;28;20745;-80
2022/07/04 00:35:31;;;;;;;5.27;2.17;;;;;;;24.52;47.21;99681.25;5092955;28;20198;-80
2022/07/04 00:37:58;;;;;;;11.30;2.23;;;;;;;24.48;46.39;99685.63;5093502;28;20259;-79
2022/07/04 00:40:24;;;;;;;2.63;2.40;;;;;;;24.38;46.98;99679.47;5092733;28;20244;-79
2022/07/04 00:42:52;;;;;;;3.77;2.43;;;;;;;24.24;47.49;99684.69;5094318;28;20310;-79
2022/07/04 00:45:20;;;;;;;3.23;2.20;;;;;;;24.22;47.88;99676.00;5092983;28;20199;-80
2022/07/04 00:47:46;;;;;;;6.73;2.20;;;;;;;24.21;47.71;99668.97;5093244;28;20233;-78
2022/07/04 00:50:13;;;;;;;4.67;2.30;;;;;;;24.32;48.27;99670.53;5092948;28;20198;-78
2022/07/04 00:52:40;;;;;;;4.67;2.30;;;;;;;24.34;47.57;99667.53;5092995;28;20202;-78
2022/07/04 00:55:08;;;;;;;2.47;2.20;;;;;;;24.45;48.02;99669.91;5092976;28;20191;-77
2022/07/04 00:57:35;;;;;;;7.60;2.73;;;;;;;24.54;47.33;99673.63;5092759;28;20255;-77
2022/07/04 01:00:04;;;;;;;4.47;2.77;;;;;;;24.50;46.75;99672.56;5093572;28;20607;-78
2022/07/04 01:02:31;;;;;;;4.07;2.57;;;;;;;24.53;46.54;99669.31;5092930;28;20202;-77
2022/07/04 01:04:57;;;;;;;3.47;2.43;;;;;;;24.54;46.99;99668.19;5092739;28;20697;-78
2022/07/04 01:07:24;;;;;;;3.20;2.53;;;;;;;24.55;47.67;99658.94;5092613;28;20199;-78
2022/07/04 01:09:51;;;;;;;4.83;2.53;;;;;;;24.58;47.81;99663.00;5092907;28;20902;-78
2022/07/04 01:12:26;;;;;;;3.00;2.13;;;;;;;24.65;47.68;99658.94;5093004;28;20621;-77
2022/07/04 01:14:53;;;;;;;4.73;2.30;;;;;;;24.64;48.55;99657.31;5092393;28;20222;-78
2022/07/04 01:17:21;;;;;;;5.17;2.43;;;;;;;24.66;48.19;99665.16;5093091;28;20190;-77
2022/07/04 01:19:48;;;;;;;5.90;2.53;;;;;;;24.73;47.29;99666.47;5092182;28;20651;-77
2022/07/04 01:22:18;;;;;;;3.73;2.50;;;;;;;24.77;47.97;99656.66;5093018;28;20259;-77
2022/07/04 01:24:45;;;;;;;5.77;2.43;;;;;;;24.78;47.63;99649.28;5092146;28;20613;-76
2022/07/04 01:27:11;;;;;;;4.93;2.60;;;;;;;24.65;47.46;99653.50;5092992;28;20252;-77
2022/07/04 01:29:38;;;;;;;2.60;2.40;;;;;;;24.67;47.66;99645.84;5092575;28;20624;-78
2022/07/04 01:32:06;;;;;;;3.30;3.07;;;;;;;24.68;47.59;99642.06;5092203;28;20243;-77
2022/07/04 01:34:32;;;;;;;5.00;2.70;;;;;;;24.66;47.48;99646.94;5092419;28;20229;-77
2022/07/04 01:37:00;;;;;;;2.70;2.50;;;;;;;24.59;47.62;99635.56;5092391;28;20199;-76
2022/07/04 01:39:28;;;;;;;5.30;2.70;;;;;;;24.56;48.66;99635.31;5093060;28;20194;-77
2022/07/04 01:41:55;;;;;;;2.60;2.40;;;;;;;24.54;47.95;99635.59;5091750;28;20717;-78
2022/07/04 01:44:22;;;;;;;4.70;2.67;;;;;;;24.50;47.77;99623.69;5092076;28;20711;-77
2022/07/04 01:46:49;;;;;;;5.40;2.70;;;;;;;24.51;48.44;99630.72;5092060;28;20260;-77
2022/07/04 01:49:16;;;;;;;3.03;2.47;;;;;;;24.49;49.05;99637.53;5092323;28;20251;-77
2022/07/04 01:51:45;;;;;;;4.30;2.33;;;;;;;24.62;49.75;99631.50;5092270;28;20194;-77
2022/07/04 01:54:13;;;;;;;2.60;2.40;;;;;;;24.82;48.18;99632.16;5092063;28;20202;-78
2022/07/04 01:56:41;;;;;;;3.43;2.50;;;;;;;24.92;48.55;99634.75;5092535;28;20280;-79
2022/07/04 01:59:08;;;;;;;2.90;2.53;;;;;;;25.00;47.35;99641.50;5091908;28;20622;-78
2022/07/04 02:01:35;;;;;;;4.33;2.40;;;;;;;25.10;47.73;99638.69;5092190;28;20248;-76
2022/07/04 02:04:03;;;;;;;5.17;2.50;;;;;;;25.20;47.84;99640.50;5095124;28;20230;-78
2022/07/04 02:06:30;;;;;;;7.50;2.63;;;;;;;25.31;47.23;99642.06;5096377;28;20748;-78
2022/07/04 02:09:16;;;;;;;5.20;2.50;;;;;;;25.41;46.98;99641.94;5096325;28;20548;-80
2022/07/04 02:14:26;;;;;;;5.23;3.00;;;;;;;25.62;45.96;99646.03;5062473;28;20314;-78
2022/07/04 02:16:53;;;;;;;10.70;2.90;;;;;;;25.69;46.11;99646.50;5096280;28;20194;-79
2022/07/04 02:19:19;;;;;;;9.13;3.47;;;;;;;25.77;45.90;99646.69;5095995;28;20195;-78
2022/07/04 02:21:46;;;;;;;4.17;2.70;;;;;;;25.82;45.93;99659.41;5095652;28;20249;-78
2022/07/04 02:24:13;;;;;;;9.50;3.23;;;;;;;25.87;45.28;99654.72;5096063;28;20219;-78
2022/07/04 02:26:40;;;;;;;3.43;3.13;;;;;;;25.75;45.61;99632.53;5095946;28;20694;-79
2022/07/04 02:29:08;;;;;;;6.67;2.90;;;;;;;25.88;45.23;99653.59;5095553;28;20187;-79
2022/07/04 02:31:34;;;;;;;7.73;3.50;;;;;;;25.89;45.71;99654.44;5096165;28;20191;-79
2022/07/04 02:34:01;;;;;;;9.70;3.30;;;;;;;25.87;45.75;99660.16;5095817;28;20260;-77
2022/07/04 02:36:28;;;;;;;5.40;2.77;;;;;;;25.82;45.21;99657.50;5096182;28;20195;-78
2022/07/04 02:38:55;;;;;;;6.60;2.90;;;;;;;25.70;46.52;99669.88;5095765;28;20256;-78
2022/07/04 02:41:21;;;;;;;4.13;2.67;;;;;;;25.66;46.22;99671.56;5095414;28;20223;-76
2022/07/04 02:43:48;;;;;;;6.73;2.70;;;;;;;25.66;46.71;99668.84;5095359;28;20280;-76
2022/07/04 02:46:16;;;;;;;4.50;3.07;;;;;;;25.56;46.58;99663.53;5095554;28;20545;-76
2022/07/04 02:48:43;;;;;;;3.13;2.80;;;;;;;25.43;47.18;99675.09;5095416;28;20671;-76
2022/07/04 02:51:09;;;;;;;2.87;2.43;;;;;;;25.31;47.06;99666.53;5095223;28;20191;-76
2022/07/04 02:53:36;;;;;;;4.40;3.10;;;;;;;25.20;47.52;99670.41;5095280;28;20724;-76
2022/07/04 02:56:04;;;;;;;2.97;2.53;;;;;;;25.14;47.93;99679.72;5095000;28;20195;-77
2022/07/04 02:58:31;;;;;;;4.93;2.77;;;;;;;25.18;48.68;99680.78;5095765;28;20191;-76
2022/07/04 03:00:58;;;;;;;4.30;2.73;;;;;;;25.26;48.10;99682.84;5095353;28;20200;-77
2022/07/04 03:03:27;;;;;;;5.03;3.00;;;;;;;25.31;47.83;99683.63;5095411;28;20194;-77
2022/07/04 03:05:53;;;;;;;2.57;2.43;;;;;;;25.31;47.92;99691.78;5094626;28;20245;-77
2022/07/04 03:08:20;;;;;;;8.07;3.20;;;;;;;25.24;47.64;99688.59;5094864;28;20249;-77
2022/07/04 03:10:47;;;;;;;6.33;3.07;;;;;;;25.20;48.19;99698.41;5095085;28;20259;-76
2022/07/04 03:13:14;;;;;;;5.23;3.20;;;;;;;25.03;48.01;99690.66;5094312;28;20647;-77
2022/07/04 03:15:40;;;;;;;4.20;3.20;;;;;;;24.80;48.74;99694.09;5094562;28;20198;-78
2022/07/04 03:18:07;;;;;;;5.27;3.23;;;;;;;24.67;49.95;99694.75;5094284;28;20732;-77
2022/07/04 03:20:35;;;;;;;3.70;3.20;;;;;;;24.51;50.46;99695.91;5093926;28;20198;-78
2022/07/04 03:23:02;;;;;;;6.63;3.07;;;;;;;24.26;51.04;99693.34;5094117;28;20199;-79
2022/07/04 03:25:29;;;;;;;9.53;3.57;;;;;;;24.08;51.88;99682.31;5094688;28;20226;-79
2022/07/04 03:27:55;;;;;;;3.97;3.40;;;;;;;24.03;51.83;99687.78;5094969;28;20195;-78
2022/07/04 03:30:23;;;;;;;7.43;3.20;;;;;;;23.97;52.34;99678.84;5094483;28;20199;-77
2022/07/04 03:32:50;;;;;;;5.27;3.50;;;;;;;23.90;52.55;99683.75;5094483;28;20259;-80
2022/07/04 03:35:16;;;;;;;3.57;3.17;;;;;;;23.88;53.82;99685.91;5094404;28;20201;-79
2022/07/04 03:37:45;;;;;;;3.13;2.80;;;;;;;23.69;54.07;99686.81;5094774;28;20661;-80
2022/07/04 03:40:12;;;;;;;3.57;3.27;;;;;;;23.69;54.28;99689.53;5094237;28;20263;-77
2022/07/04 03:42:38;;;;;;;6.83;3.10;;;;;;;23.86;53.83;99682.69;5094639;28;20645;-78
2022/07/04 03:45:07;;;;;;;8.67;3.50;;;;;;;23.93;53.19;99680.50;5093979;28;20220;-79
2022/07/04 03:47:34;;;;;;;7.50;3.77;;;;;;;23.85;53.57;99677.53;5094767;28;20623;-79
2022/07/04 03:50:00;;;;;;;4.33;3.90;;;;;;;23.68;54.11;99679.78;5095450;28;20197;-79
2022/07/04 03:52:27;;;;;;;4.27;3.63;;;;;;;23.69;54.57;99676.75;5094205;28;20215;-79
2022/07/04 03:54:56;;;;;;;6.17;4.90;;;;;;;23.73;53.47;99669.69;5094183;28;20725;-78
2022/07/04 03:57:23;;;;;;;7.40;4.47;;;;;;;23.79;54.12;99679.44;5093593;28;20757;-79
2022/07/04 03:59:50;;;;;;;9.77;5.83;;;;;;;23.78;54.17;99680.53;5093897;28;20666;-80
2022/07/04 04:02:17;;;;;;;12.90;4.10;;;;;;;23.63;54.95;99672.44;5093820;28;20201;-80
2022/07/04 04:07:27;;;;;;;10.10;3.90;;;;;;;24.51;52.28;99679.63;5093939;28;20184;-77
2022/07/04 04:09:55;;;;;;;7.03;4.27;;;;;;;25.10;50.46;99676.75;5093190;28;20624;-76
2022/07/04 04:12:22;;;;;;;9.17;3.40;;;;;;;25.85;49.39;99684.13;5093323;28;20743;-76
2022/07/04 04:14:49;;;;;;;9.47;3.90;;;;;;;26.64;46.06;99686.09;5092946;28;20197;-76
2022/07/04 04:17:15;;;;;;;7.47;3.67;;;;;;;27.52;44.05;99689.53;5094194;28;20240;-76
2022/07/04 04:19:42;;;;;;;12.13;3.70;;;;;;;28.22;42.06;99685.38;5093077;28;20429;-76
2022/07/04 04:22:09;;;;;;;12.47;4.07;;;;;;;28.72;40.31;99692.44;5093542;28;20731;-78
2022/07/04 04:24:35;;;;;;;3.87;3.43;;;;;;;28.76;39.71;99693.44;5092971;28;20273;-78
2022/07/04 04:27:04;;;;;;;6.83;3.43;;;;;;;29.32;38.32;99688.25;5092886;28;20272;-81
2022/07/04 04:29:31;;;;;;;4.00;3.60;;;;;;;29.68;38.18;99690.84;5093212;28;20194;-78
2022/07/04 04:31:58;;;;;;;7.93;3.63;;;;;;;30.14;36.96;99694.72;5092766;28;20296;-77
2022/07/04 04:34:25;;;;;;;5.20;3.60;;;;;;;30.65;35.54;99703.00;5093340;28;20257;-77
2022/07/04 04:36:51;;;;;;;9.27;3.40;;;;;;;31.36;34.88;99698.78;5092369;28;20624;-78
2022/07/04 04:39:18;;;;;;;4.00;2.83;;;;;;;31.57;33.94;99699.69;5092820;28;20253;-79
2022/07/04 04:41:45;;;;;;;8.03;3.10;;;;;;;32.01;32.88;99710.19;5092369;28;20694;-78
2022/07/04 04:44:13;;;;;;;5.70;4.03;;;;;;;32.63;32.16;99716.59;5093748;28;20219;-80
2022/07/04 04:46:40;;;;;;;9.50;4.03;;;;;;;33.30;31.08;99698.69;5092985;28;20286;-76
2022/07/04 04:49:06;;;;;;;4.67;3.47;;;;;;;33.76;30.41;99721.53;5092470;28;20253;-78
2022/07/04 04:51:33;;;;;;;4.60;3.10;;;;;;;33.97;30.07;99709.25;5092607;28;20667;-78
2022/07/04 04:54:00;;;;;;;5.37;3.03;;;;;;;34.36;29.88;99716.03;5092011;28;20240;-76
2022/07/04 04:56:27;;;;;;;5.27;3.50;;;;;;;34.45;29.56;99717.50;5092637;28;20203;-75
2022/07/04 04:58:53;;;;;;;8.10;4.30;;;;;;;34.93;29.04;99717.41;5088023;28;20203;-73
2022/07/04 05:01:21;;;;;;;11.82;3.38;;;;;;;35.02;28.36;99720.81;5093358;28;20195;-78
2022/07/04 05:03:48;;;;;;;5.25;3.40;;;;;;;35.30;28.36;99712.53;5092350;28;20257;-75
2022/07/04 05:06:15;;;;;;;3.58;3.25;;;;;;;35.26;28.23;99717.13;5092114;28;20219;-75
2022/07/04 05:08:42;;;;;;;10.93;3.75;;;;;;;35.21;28.32;99706.34;5092552;28;20199;-77
2022/07/04 05:11:09;;;;;;;8.27;3.75;;;;;;;35.49;27.79;99705.19;5092281;28;20191;-77
2022/07/04 05:13:36;;;;;;;4.20;3.83;;;;;;;35.75;27.66;99704.66;5093366;28;20564;-76
2022/07/04 05:16:03;;;;;;;9.25;3.80;;;;;;;36.06;27.12;99702.69;5092113;28;20667;-77
2022/07/04 05:18:31;;;;;;;6.57;3.83;;;;;;;36.22;27.66;99711.00;5092858;28;20248;-78
2022/07/04 05:20:59;;;;;;;4.13;3.45;;;;;;;36.03;27.19;99708.94;5092609;28;20599;-78
2022/07/04 05:23:26;;;;;;;4.10;3.55;;;;;;;36.13;27.33;99702.84;5092906;28;20191;-78
2022/07/04 05:25:53;;;;;;;6.13;3.60;;;;;;;36.28;26.86;99701.22;5092829;28;20215;-79
2022/07/04 05:28:20;;;;;;;5.78;3.60;;;;;;;36.04;27.52;99704.19;5089735;28;20280;-79
2022/07/04 05:30:47;;;;;;;6.50;3.58;;;;;;;36.25;26.99;99701.97;5091799;28;20199;-80
2022/07/04 05:33:13;;;;;;;20.98;4.43;;;;;;;36.16;27.00;99698.56;5091648;28;20195;-75
2022/07/04 05:35:41;;;;;;;3.60;3.30;;;;;;;36.00;26.34;99700.53;5091969;28;20248;-81
2022/07/04 05:38:08;;;;;;;10.52;3.30;;;;;;;35.89;26.78;99700.28;5091987;28;20199;-80
2022/07/04 05:40:35;;;;;;;7.25;3.92;;;;;;;35.77;27.63;99702.34;5092566;28;20195;-81
2022/07/04 05:43:01;;;;;;;8.15;3.58;;;;;;;35.69;27.06;99700.53;5091865;28;20191;-81
2022/07/04 05:45:28;;;;;;;6.07;3.40;;;;;;;35.91;27.01;99697.97;5092108;28;20227;-81
2022/07/04 05:47:55;;;;;;;6.63;4.03;;;;;;;35.85;27.78;99702.16;5092461;28;20260;-81
2022/07/04 05:50:22;;;;;;;4.68;3.35;;;;;;;35.82;26.71;99699.31;5092117;28;20191;-78
2022/07/04 05:52:50;;;;;;;7.47;3.08;;;;;;;35.98;26.59;99697.34;5091728;28;20252;-82
2022/07/04 05:55:16;;;;;;;5.30;3.03;;;;;;;35.78;26.46;99706.72;5091771;28;20622;-75
2022/07/04 05:57:43;;;;;;;6.57;2.97;;;;;;;35.94;25.91;99702.00;5091653;28;20195;-79
2022/07/04 06:00:12;;;;;;;3.42;2.88;;;;;;;35.79;26.15;99705.56;5091963;28;20221;-79
2022/07/04 06:02:38;;;;;;;8.80;2.83;;;;;;;35.80;26.11;99696.13;5087527;28;20195;-75
2022/07/04 06:05:05;;;;;;;10.15;3.08;;;;;;;35.94;25.57;99696.44;5091722;28;20219;-78
2022/07/04 06:07:32;;;;;;;6.30;2.53;;;;;;;36.02;25.31;99698.22;5091874;28;20195;-77
2022/07/04 06:10:00;;;;;;;5.60;2.55;;;;;;;35.72;25.69;99691.53;5091701;28;20267;-76
2022/07/04 06:12:27;;;;;;;8.70;2.53;;;;;;;35.71;26.37;99695.44;5091691;28;20191;-82
2022/07/04 06:14:54;;;;;;;10.68;2.88;;;;;;;35.40;25.86;99698.22;5091260;28;20336;-82
2022/07/04 06:17:21;;;;;;;5.43;2.42;;;;;;;35.35;25.92;99701.25;5091356;28;20655;-74
2022/07/04 06:19:48;;;;;;;7.60;2.65;;;;;;;35.29;25.83;99697.13;5088823;28;20224;-72
2022/07/04 06:22:14;;;;;;;3.90;2.38;;;;;;;35.37;25.25;99698.91;5091301;28;20196;-73
2022/07/04 06:24:41;;;;;;;4.25;2.30;;;;;;;35.52;25.74;99695.38;5091491;28;20219;-76
2022/07/04 06:27:10;;;;;;;2.30;2.17;;;;;;;35.53;25.60;99691.44;5091795;28;20191;-76
2022/07/04 06:29:36;;;;;;;3.78;2.05;;;;;;;35.45;25.67;99679.41;5092129;28;20250;-75
2022/07/04 06:32:04;;;;;;;8.35;2.72;;;;;;;35.51;25.28;99677.97;5091517;28;20207;-76
2022/07/04 06:37:14;;;;;;;5.00;2.78;;;;;;;35.60;24.95;99691.63;5091334;28;20198;-75
2022/07/04 06:39:41;;;;;;;4.05;2.00;;;;;;;35.56;26.09;99690.75;5091612;28;20245;-73
2022/07/04 06:42:09;;;;;;;10.25;2.47;;;;;;;35.52;24.94;99681.56;5091606;28;20387;-66
2022/07/04 06:44:36;;;;;;;3.67;2.45;;;;;;;35.49;25.51;99679.50;5091021;28;20191;-66
2022/07/04 06:47:03;;;;;;;6.57;2.70;;;;;;;35.45;24.95;99678.59;5091719;28;20202;-66
2022/07/04 06:49:30;;;;;;;6.45;2.42;;;;;;;35.41;24.94;99677.69;5093044;28;20195;-66
2022/07/04 06:51:57;;;;;;;2.78;2.38;;;;;;;35.24;25.18;99678.00;5094851;28;20199;-67
2022/07/04 06:54:23;;;;;;;2.97;1.98;;;;;;;35.13;25.39;99665.88;5088081;28;20198;-66
2022/07/04 06:56:51;;;;;;;5.15;2.00;;;;;;;35.15;25.35;99658.81;5094665;28;20621;-65
2022/07/04 06:59:19;;;;;;;3.95;2.47;;;;;;;35.15;25.41;99658.03;5094547;28;20192;-66
2022/07/04 07:01:45;;;;;;;4.47;2.40;;;;;;;35.03;25.62;99658.88;5094483;28;20260;-67
2022/07/04 07:04:12;;;;;;;3.78;2.25;;;;;;;34.92;25.79;99657.00;5094720;28;20610;-66
2022/07/04 07:06:39;;;;;;;5.07;2.15;;;;;;;35.00;25.98;99650.53;5094584;28;20223;-66
2022/07/04 07:09:05;;;;;;;5.85;2.80;;;;;;;34.99;25.86;99654.44;5094801;28;20199;-66
2022/07/04 07:11:32;;;;;;;2.83;2.13;;;;;;;34.93;26.13;99647.56;5094672;28;20191;-66
2022/07/04 07:13:59;;;;;;;7.43;2.20;;;;;;;35.01;26.00;99646.59;5094394;28;20217;-66
2022/07/04 07:16:27;;;;;;;7.05;2.58;;;;;;;35.07;26.35;99645.19;5094420;28;20203;-66
2022/07/04 07:18:54;;;;;;;5.43;2.40;;;;;;;34.98;26.67;99642.59;5093807;28;20253;-68
2022/07/04 07:21:20;;;;;;;2.58;2.38;;;;;;;35.04;26.38;99645.91;5094176;28;20188;-68
2022/07/04 07:23:47;;;;;;;3.40;3.00;;;;;;;34.88;26.65;99636.78;5094639;28;20252;-66
2022/07/04 07:26:14;;;;;;;3.15;2.78;;;;;;;34.84;26.54;99641.38;5086643;28;20296;-66
2022/07/04 07:28:41;;;;;;;12.30;2.97;;;;;;;34.78;26.83;99628.97;5080223;28;20204;-66
2022/07/04 07:31:08;;;;;;;3.80;2.67;;;;;;;34.81;26.37;99636.56;5074187;28;20196;-66
2022/07/04 07:33:36;;;;;;;3.75;2.90;;;;;;;34.96;26.55;99635.81;5092276;28;20751;-67
2022/07/04 07:36:03;;;;;;;3.85;2.60;;;;;;;34.76;26.28;99636.78;5094235;28;20245;-66
2022/07/04 07:38:30;;;;;;;8.75;3.15;;;;;;;35.02;26.86;99628.88;5094245;28;20252;-66
2022/07/04 07:40:56;;;;;;;2.90;2.47;;;;;;;35.09;26.43;99626.28;5092957;28;20231;-67
2022/07/04 07:43:23;;;;;;;5.65;2.80;;;;;;;35.03;26.73;99622.19;5093764;28;20545;-66
2022/07/04 07:45:50;;;;;;;11.60;3.00;;;;;;;34.99;26.99;99633.13;5093069;28;20600;-66
2022/07/04 07:48:17;;;;;;;3.22;2.80;;;;;;;35.07;26.97;99623.09;5094232;28;20191;-66
2022/07/04 07:50:45;;;;;;;4.68;2.83;;;;;;;35.17;27.00;99623.38;5092624;28;20241;-66
2022/07/04 07:53:11;;;;;;;8.57;2.60;;;;;;;35.28;26.68;99629.19;5093994;28;20195;-66
2022/07/04 07:55:38;;;;;;;3.72;2.42;;;;;;;35.41;26.46;99619.66;5093743;28;20195;-66
2022/07/04 07:58:05;;;;;;;7.97;2.67;;;;;;;35.52;26.34;99617.97;5092639;28;20207;-65
2022/07/04 08:00:32;;;;;;;4.15;2.63;;;;;;;35.56;26.47;99616.88;5093725;28;20187;-65
2022/07/04 08:05:44;;;;;;;14.90;3.70;;;;;;;35.25;26.26;99618.81;5092220;28;20218;-66
2022/07/04 08:08:11;;;;;;;20.83;4.88;;;;;;;34.74;27.22;99612.28;5093743;28;20607;-66
2022/07/04 08:10:38;;;;;;;8.75;3.22;;;;;;;35.05;27.29;99606.06;5093114;28;20679;-65
2022/07/04 08:13:05;;;;;;;5.28;2.92;;;;;;;35.25;27.19;99602.25;5093670;28;20252;-65
2022/07/04 08:15:32;;;;;;;3.88;2.65;;;;;;;35.46;27.14;99600.03;5092864;28;20265;-65
2022/07/04 08:17:59;;;;;;;7.18;3.10;;;;;;;35.38;26.74;99603.78;5082160;28;20265;-65
2022/07/04 08:20:26;;;;;;;7.10;2.80;;;;;;;35.34;26.91;99597.38;5073357;28;20192;-65
2022/07/04 08:22:54;;;;;;;11.18;3.45;;;;;;;35.48;26.17;99589.44;5076158;28;20195;-65
2022/07/04 08:25:21;;;;;;;9.50;2.78;;;;;;;35.83;25.59;99602.16;5093331;28;20276;-66
2022/07/04 08:27:48;;;;;;;12.70;3.03;;;;;;;35.83;24.14;99601.34;5093106;28;20663;-66
2022/07/04 08:30:15;;;;;;;6.18;2.47;;;;;;;35.90;24.06;99607.88;5092432;28;20259;-66
2022/07/04 08:32:42;;;;;;;2.63;2.42;;;;;;;35.64;24.65;99609.59;5093242;28;20248;-65
2022/07/04 08:35:09;;;;;;;2.55;2.30;;;;;;;35.58;25.18;99599.94;5082033;28;20639;-66
2022/07/04 08:37:36;;;;;;;3.35;2.28;;;;;;;35.92;25.35;99604.72;5073275;28;20241;-66
2022/07/04 08:40:07;;;;;;;7.30;3.00;;;;;;;36.14;25.12;99601.28;5077401;28;20199;-66
2022/07/04 08:42:37;;;;;;;5.88;2.58;;;;;;;35.97;24.55;99607.22;5093538;28;20231;-65
2022/07/04 08:45:06;;;;;;;4.53;2.60;;;;;;;36.12;25.09;99598.06;5092934;28;20184;-65
2022/07/04 08:47:34;;;;;;;4.95;2.70;;;;;;;36.06;24.78;99596.75;5093354;28;20198;-65
2022/07/04 08:50:11;;;;;;;3.28;2.90;;;;;;;36.01;25.20;99597.06;5091747;28;20191;-71
2022/07/04 08:52:39;;;;;;;3.88;2.70;;;;;;;36.22;25.57;99595.56;5093941;28;20274;-66
2022/07/04 09:00:39;;;;;;;3.50;2.70;;;;;;;36.02;25.18;99587.56;5091826;28;20256;-65
2022/07/04 09:03:06;;;;;;;5.95;3.22;;;;;;;35.94;25.16;99585.81;5092491;28;20667;-65
2022/07/04 09:05:34;;;;;;;3.95;2.55;;;;;;;35.94;25.29;99585.81;5091209;28;20678;-65
2022/07/04 09:08:01;;;;;;;3.22;2.95;;;;;;;36.06;25.76;99583.75;5092842;28;20199;-64
2022/07/04 09:10:30;;;;;;;4.40;3.13;;;;;;;36.26;25.61;99579.81;5091649;28;20195;-64
2022/07/04 09:12:58;;;;;;;2.92;2.38;;;;;;;36.40;24.75;99587.63;5092480;28;20199;-64
2022/07/04 09:15:26;;;;;;;2.53;2.33;;;;;;;36.05;24.48;99581.34;5092344;28;20199;-64
2022/07/04 09:17:53;;;;;;;2.33;2.22;;;;;;;36.10;24.73;99572.75;5093510;28;20634;-65
2022/07/04 09:20:22;;;;;;;4.45;2.33;;;;;;;36.12;23.53;99587.00;5091532;28;20582;-65
2022/07/04 09:22:50;;;;;;;2.90;2.30;;;;;;;36.13;22.05;99577.56;5092227;28;20252;-68
2022/07/04 09:25:18;;;;;;;6.18;2.38;;;;;;;36.31;21.33;99581.50;5091477;28;20255;-68
2022/07/04 09:27:48;;;;;;;4.75;2.30;;;;;;;36.39;19.35;99584.06;5092222;28;20678;-69
2022/07/04 09:30:16;;;;;;;5.90;2.17;;;;;;;36.38;20.64;99579.69;5091070;28;20248;-68
2022/07/04 09:32:45;;;;;;;6.50;2.40;;;;;;;36.47;20.29;99582.25;5092336;28;20192;-69
2022/07/04 09:35:13;;;;;;;3.05;2.00;;;;;;;36.74;20.28;99570.13;5091897;28;20884;-69
2022/07/04 09:37:45;;;;;;;6.47;2.55;;;;;;;36.91;19.48;99573.22;5092024;28;20196;-68
2022/07/04 09:40:23;;;;;;;3.28;1.92;;;;;;;36.68;19.61;99568.84;5091302;28;20203;-69
2022/07/04 09:42:51;;;;;;;3.42;2.35;;;;;;;36.85;19.20;99565.59;5093207;28;20211;-68
2022/07/04 09:45:21;;;;;;;3.75;2.47;;;;;;;36.90;19.79;99568.88;5090677;28;20217;-69
2022/07/04 09:47:48;;;;;;;3.70;1.98;;;;;;;36.63;20.54;99575.44;5091724;28;20662;-68
2022/07/04 09:50:18;;;;;;;5.03;3.00;;;;;;;36.38;20.20;99551.22;5091914;28;20663;-69
2022/07/04 09:52:50;;;;;;;4.20;2.05;;;;;;;36.61;20.29;99566.72;5091217;28;20201;-69
2022/07/04 09:55:25;;;;;;;6.40;2.67;;;;;;;36.61;20.65;99565.91;5092403;28;20268;-67
2022/07/04 09:57:54;;;;;;;8.73;2.67;;;;;;;36.61;20.53;99571.44;5092032;28;20641;-70
2022/07/04 10:00:24;;;;;;;4.68;2.30;;;;;;;36.87;19.98;99574.34;5091857;28;20195;-67
2022/07/04 10:02:51;;;;;;;3.08;2.40;;;;;;;37.13;20.19;99566.09;5090311;28;20199;-68
2022/07/04 10:05:21;;;;;;;2.47;2.30;;;;;;;36.74;19.86;99568.19;5091678;28;20568;-69
2022/07/04 10:07:49;;;;;;;2.78;2.50;;;;;;;36.60;20.57;99556.81;5090259;28;20218;-69
2022/07/04 10:10:31;;;;;;;4.70;2.47;;;;;;;36.84;20.89;99566.78;5091518;28;20621;-69
2022/07/04 10:13:01;;;;;;;4.15;2.05;;;;;;;36.89;20.57;99549.84;5090150;28;20252;-69
2022/07/04 10:15:28;;;;;;;6.07;2.45;;;;;;;35.85;21.86;99549.28;5090548;28;20241;-69
2022/07/04 10:17:55;;;;;;;3.75;2.20;;;;;;;36.09;20.91;99552.56;5090316;28;20195;-71
2022/07/04 10:20:22;;;;;;;5.22;2.33;;;;;;;36.22;21.87;99564.34;5090977;28;20199;-69
2022/07/04 10:22:49;;;;;;;2.72;2.30;;;;;;;36.30;21.44;99558.56;5091859;28;20259;-69
2022/07/04 10:25:16;;;;;;;6.28;2.22;;;;;;;36.27;21.35;99550.19;5093323;28;20191;-69
2022/07/04 10:27:43;;;;;;;5.70;2.58;;;;;;;36.40;21.90;99543.34;5096181;28;20227;-69
2022/07/04 10:30:15;;;;;;;4.03;2.20;;;;;;;36.64;21.19;99543.03;5094736;28;20574;-69
2022/07/04 10:32:44;;;;;;;7.13;2.70;;;;;;;35.97;22.28;99538.09;5095589;28;20241;-70
2022/07/04 10:35:14;;;;;;;5.15;2.30;;;;;;;36.03;21.54;99544.91;5093567;28;20191;-70
2022/07/04 10:38:08;;;;;;;2.58;1.95;;;;;;;36.08;21.95;99525.25;5095257;28;20730;-74
2022/07/04 10:40:45;;;;;;;6.18;2.28;;;;;;;36.23;21.48;99532.72;5069025;28;20199;-73
2022/07/04 10:44:00;;;;;;;2.50;2.30;;;;;;;35.27;22.64;99539.16;5095105;28;20195;-73
2022/07/04 10:46:47;;;;;;;2.80;2.10;;;;;;;35.18;22.84;99524.69;5095538;28;20207;-75
2022/07/04 10:49:23;;;;;;;2.25;2.05;;;;;;;35.37;23.48;99516.53;5093668;28;20198;-69
2022/07/04 10:51:51;;;;;;;2.65;2.28;;;;;;;34.89;23.19;99523.22;5095295;28;20240;-69
2022/07/04 10:54:20;;;;;;;3.33;2.47;;;;;;;35.18;23.33;99520.00;5093598;28;20268;-72
2022/07/04 10:56:50;;;;;;;8.45;2.72;;;;;;;35.31;23.49;99506.94;5095232;28;20387;-68
2022/07/04 10:59:19;;;;;;;3.08;2.70;;;;;;;35.44;23.53;99513.94;5095149;28;20670;-69
2022/07/04 11:01:49;;;;;;;2.38;2.22;;;;;;;35.51;23.23;99505.78;5094099;28;20651;-68
2022/07/04 11:04:49;;;;;;;5.10;2.40;;;;;;;35.86;23.89;99507.44;5094822;28;20241;-67
2022/07/04 11:07:18;;;;;;;2.78;2.58;;;;;;;35.22;23.90;99503.50;5093714;28;20314;-67
2022/07/04 11:09:45;;;;;;;4.10;2.40;;;;;;;35.74;23.40;99513.06;5094996;28;20191;-67
2022/07/04 11:12:14;;;;;;;6.40;2.63;;;;;;;35.61;23.44;99505.25;5093894;28;20199;-66
2022/07/04 11:14:42;;;;;;;3.33;2.13;;;;;;;35.75;23.16;99505.56;5094807;28;20187;-67
2022/07/04 11:17:12;;;;;;;6.85;2.40;;;;;;;35.64;23.46;99504.53;5093243;28;20198;-67
2022/07/04 11:19:39;;;;;;;3.85;2.50;;;;;;;35.73;23.44;99496.81;5094090;28;20629;-66
2022/07/04 11:22:08;;;;;;;3.13;2.22;;;;;;;35.59;23.52;99502.03;5095011;28;20256;-67
2022/07/04 11:24:35;;;;;;;3.70;2.50;;;;;;;35.82;23.12;99489.97;5093605;28;20203;-66
2022/07/04 11:27:03;;;;;;;3.08;2.58;;;;;;;35.64;24.32;99496.25;5094051;28;20276;-67
2022/07/04 11:29:30;;;;;;;2.67;2.50;;;;;;;35.66;23.82;99494.72;5093527;28;20275;-67
2022/07/04 11:31:57;;;;;;;3.35;2.63;;;;;;;35.60;23.79;99500.88;5094269;28;20667;-67
2022/07/04 11:34:25;;;;;;;2.65;2.42;;;;;;;35.58;24.20;99492.13;5092589;28;20207;-67
2022/07/04 11:36:53;;;;;;;4.65;2.50;;;;;;;35.67;23.56;99481.66;5094137;28;20227;-67
2022/07/04 11:39:21;;;;;;;4.30;2.30;;;;;;;35.49;24.42;99488.78;5093481;28;20572;-69
2022/07/04 11:47:37;;;;;;;3.17;2.30;;;;;;;35.15;24.79;99467.44;5031687;28;20291;-67
2022/07/04 11:50:08;;;;;;;4.72;2.53;;;;;;;35.35;24.56;99488.47;5031735;28;20348;-66
2022/07/04 11:52:46;;;;;;;4.28;2.53;;;;;;;35.27;24.38;99478.38;5068959;28;20579;-66
2022/07/04 11:55:15;;;;;;;5.10;2.50;;;;;;;35.19;24.51;99471.09;5093888;28;20194;-66
2022/07/04 11:57:44;;;;;;;4.07;2.70;;;;;;;35.14;24.74;99479.63;5092827;28;20194;-67